Silver City, Nevada
Current Conditions -  °F | °C
As of 8:55 PM on Wednesday 22 Oct 2014 (Local Time) from KCXP Reporting Station
Clear Clear  
Wind Chill: 63°   Ceiling: Unl
Heat Index: 63°   Visibility: 10mi
Dew Point: 27°   Wind: 0mph
Humidity: 26%   Direction: NA
Pressure: 30.1"   Gusts: NA
Location:  39.26°N, 119.64°W
Report Text: KCXP 230355Z AUTO 00000KT 10SM CLR 17/M03 A3010 RMK AO2
Loading
Personal Weather Stations






























Interactive Weather Map
Tropical Storm Tracking
New forecast layout! Learn more

10-Day Weather Forecast

Advertisements
Track Severe Weather on mobile